• Join FlightAware (Why Join?)
  • Login
  • US Flag 
01:00AM EDT


 

Airport Tracker/Info


-or-


 

Live Flight TrackerFlight Track Log ✈ VH-OZH ✈ 24-Apr-2013 ✈ YTDR - YBSU / MCY

Flight Track Log - Related Links

Times and Time Zones

All times are in EDT time to prevent confusion due to time zone crossing. See the VH-OZH flight status page for this flight to view local times or setup timezone preferences in your user account.

Time Position Orientation Groundspeed Altitude Reporting Facility
EDT Latitude Longitude Course Direction KTS MPH feet Rate Location/Type
11:51PM -25.0955 150.2781 302° West 200  Level Aus ATC (Calculated)
11:53PM -25.0674 150.2292 119° Southeast 111 128 4,300 1,320 Climbing Aus ATC (RADAR)
11:55PM -25.0898 150.2737 119° Southeast 111 128 5,400 720 Climbing Aus ATC (RADAR)
11:55PM -25.0999 150.2928 120° Southeast 109 125 5,900 720 Climbing Aus ATC (RADAR)
11:57PM -25.1203 150.3335 119° Southeast 123 142 6,800 600 Climbing Aus ATC (RADAR)
11:57PM -25.1264 150.3445 122° Southeast 125 144 7,000 540 Climbing Aus ATC (RADAR)
11:58PM -25.1454 150.3807 120° Southeast 125 144 7,700 600 Climbing Aus ATC (RADAR)
11:59PM -25.1563 150.4001 122° Southeast 127 146 8,100 720 Climbing Aus ATC (RADAR)
11:59PM -25.1710 150.4258 122° Southeast 131 151 8,700 720 Climbing Aus ATC (RADAR)
12:00AM -25.1825 150.4451 123° Southeast 129 148 9,100 600 Climbing Aus ATC (RADAR)
12:01AM -25.1978 150.4714 123° Southeast 135 155 9,600 480 Climbing Aus ATC (RADAR)
12:01AM -25.2029 150.4802 123° Southeast 136 157 9,700 360 Climbing Aus ATC (RADAR)
12:02AM -25.2165 150.5033 123° Southeast 135 155 10,000 180 Climbing Aus ATC (RADAR)
12:03AM -25.2384 150.5356 127° Southeast 155 178 10,000  Level Aus ATC (RADAR)
12:03AM -25.2546 150.5678 119° Southeast 170 196 10,000  Level Aus ATC (RADAR)
12:04AM -25.2784 150.6105 122° Southeast 178 205 10,000  Level Aus ATC (RADAR)
12:05AM -25.3021 150.6522 122° Southeast 172 198 10,000  Level Aus ATC (RADAR)
12:06AM -25.3285 150.6996 122° Southeast 177 204 10,000  Level Aus ATC (RADAR)
12:07AM -25.3535 150.7464 121° Southeast 178 205 10,000  Level Aus ATC (RADAR)
12:08AM -25.3709 150.7769 122° Southeast 175 201 10,000  Level Aus ATC (RADAR)
12:08AM -25.3930 150.8201 120° Southeast 177 204 10,000  Level Aus ATC (RADAR)
12:09AM -25.4161 150.8610 122° Southeast 169 194 10,000  Level Aus ATC (RADAR)
12:10AM -25.4310 150.8878 122° Southeast 174 200 10,000  Level Aus ATC (RADAR)
12:11AM -25.4535 150.9312 120° Southeast 176 203 10,000  Level Aus ATC (RADAR)
12:11AM -25.4615 150.9463 120° Southeast 174 200 10,000  Level Aus ATC (RADAR)
12:12AM -25.4862 150.9922 121° Southeast 171 197 10,000  Level Aus ATC (RADAR)
12:15AM -25.5300 151.0721 121° Southeast 174 200 10,000  Level Aus ATC (RADAR)
12:18AM -25.5791 151.1660 120° Southeast 174 200 10,100  Climbing Aus ATC (RADAR)
12:21AM -25.6538 151.3057 121° Southeast 176 203 10,100  Level Aus ATC (RADAR)
12:21AM -25.6688 151.3325 122° Southeast 174 200 10,100  Level Aus ATC (RADAR)
12:24AM -25.7368 151.4544 122° Southeast 195 224 10,100  Level Aus ATC (RADAR)
12:24AM -25.7451 151.4704 120° Southeast 185 213 10,100  Level Aus ATC (RADAR)
12:25AM -25.7843 151.5424 121° Southeast 173 199 10,100  Level Aus ATC (RADAR)
12:26AM -25.7903 151.5540 120° Southeast 172 198 10,100  Level Aus ATC (RADAR)
12:26AM -25.8112 151.5928 121° Southeast 175 201 10,100  Level Aus ATC (RADAR)
12:27AM -25.8258 151.6196 121° Southeast 173 199 10,100  Level Aus ATC (RADAR)
12:28AM -25.8509 151.6652 121° Southeast 172 198 10,100  Level Aus ATC (RADAR)
12:29AM -25.8591 151.6807 120° Southeast 172 198 10,100  Level Aus ATC (RADAR)
12:29AM -25.8716 151.7044 121° Southeast 175 201 10,100  Level Aus ATC (RADAR)
12:30AM -25.8944 151.7470 121° Southeast 173 199 10,100  Level Aus ATC (RADAR)
12:31AM -25.9085 151.7741 120° Southeast 172 198 10,100  Level Aus ATC (RADAR)
12:31AM -25.9315 151.8169 121° Southeast 173 199 10,100  Level Aus ATC (RADAR)
12:32AM -25.9463 151.8445 121° Southeast 175 201 10,100  Level Aus ATC (RADAR)
12:33AM -26.0033 151.9564 120° Southeast 184 212 10,100  Level Aus ATC (RADAR)
12:34AM -26.0173 151.9803 123° Southeast 159 183 10,100  Level Aus ATC (RADAR)
12:34AM -26.0494 152.0422 120° Southeast 169 194 10,100  Level Aus ATC (RADAR)
12:35AM -26.0947 152.1286 120° Southeast 180 207 10,100 -240 Level Aus ATC (RADAR)
12:36AM -26.1271 152.1882 121° Southeast 180 207 9,800 -540 Descending Aus ATC (RADAR)
12:37AM -26.1613 152.2535 120° Southeast 195 224 9,300 -540 Descending Aus ATC (RADAR)
12:37AM -26.1681 152.2666 120° Southeast 194 223 9,200 -600 Descending Aus ATC (RADAR)
12:38AM -26.1869 152.3023 120° Southeast 196 226 8,800 -660 Descending Aus ATC (RADAR)
12:39AM -26.2440 152.4088 121° Southeast 190 219 7,500 -600 Descending Aus ATC (RADAR)
12:40AM -26.2483 152.4168 121° Southeast 185 213 7,500 -360 Level Aus ATC (RADAR)
12:41AM -26.2741 152.4662 120° Southeast 183 211 7,100 -600 Descending Aus ATC (RADAR)
12:41AM -26.2957 152.5075 120° Southeast 182 209 6,500 -540 Descending Aus ATC (RADAR)
12:42AM -26.3189 152.5512 121° Southeast 176 203 6,200 -420 Descending Aus ATC (RADAR)
12:43AM -26.3395 152.5896 121° Southeast 172 198 5,800 -480 Descending Aus ATC (RADAR)
12:44AM -26.3562 152.6255 117° Southeast 169 194 5,500 -480 Descending Aus ATC (RADAR)
12:45AM -26.3699 152.6524 120° Southeast 169 194 5,200 -420 Descending Aus ATC (RADAR)
12:45AM -26.3921 152.6930 121° Southeast 162 186 4,900 -480 Descending Aus ATC (RADAR)
12:46AM -26.3984 152.7041 122° Southeast 164 189 4,700 -600 Descending Aus ATC (RADAR)
12:46AM -26.4123 152.7308 120° Southeast 166 191 4,400 -660 Descending Aus ATC (RADAR)
12:47AM -26.4364 152.7778 120° Southeast 170 196 3,700 -660 Descending Aus ATC (RADAR)
12:48AM -26.4621 152.8257 121° Southeast 160 184 3,100 -540 Descending Aus ATC (RADAR)
12:49AM -26.4680 152.8374 119° Southeast 163 188 2,900 -300 Descending Aus ATC (RADAR)
12:50AM -26.4777 152.8557 121° Southeast 162 186 2,700 -240 Descending Aus ATC (RADAR)
12:51AM -26.4855 152.8700 121° Southeast 160 184 2,600 -120 Descending Aus ATC (RADAR)
12:51AM -26.4988 152.8963 120° Southeast 144 166 2,600 -420 Level Aus ATC (RADAR)
12:52AM -26.5327 152.9642 119° Southeast 150 173 2,000 -840 Descending Aus ATC (RADAR)
12:53AM -26.5542 153.0080 119° Southeast 156 180 1,400 -780 Descending Aus ATC (RADAR)
12:54AM -26.5756 153.0469 122° Southeast 148 170 800 -600 Descending Aus ATC (RADAR)
12:56AM -26.5977 153.0903 121° Southeast  Level FlightAware Approximate
01:03AM -26.6033 153.0911 121° Southeast  Level Estimated
01:04AM -26.5977 153.0903 121° Southeast  Level FlightAware Approximate
01:05AM -26.6033 153.0911 121° Southeast  Level Estimated
01:06AM -26.5977 153.0903 121° Southeast  Level FlightAware Approximate
01:07AM -26.6033 153.0911 121° Southeast  Level Estimated
01:08AM -26.5977 153.0903 121° Southeast  Level FlightAware Approximate
01:09AM -26.6033 153.0911 121° Southeast  Level Estimated
01:10AM -26.5977 153.0903 121° Southeast  Level FlightAware Approximate
01:11AM -26.6033 153.0911 121° Southeast  Level Estimated
01:12AM -26.5977 153.0903 121° Southeast  Level FlightAware Approximate